createdAt,value
2017-12-08T00:02:00.689Z,97436
2017-12-08T00:04:28.098Z,97436
2017-12-08T00:06:55.746Z,97429
2017-12-08T00:09:22.412Z,97423
2017-12-08T00:11:49.044Z,97426
2017-12-08T00:14:16.635Z,97429
2017-12-08T00:16:43.256Z,97419
2017-12-08T00:19:10.512Z,97413
2017-12-08T00:21:37.164Z,97414
2017-12-08T00:24:03.833Z,97409
2017-12-08T00:26:31.222Z,97399
2017-12-08T00:28:57.836Z,97405
2017-12-08T00:31:25.200Z,97391
2017-12-08T00:33:51.935Z,97396
2017-12-08T00:36:19.315Z,97396
2017-12-08T00:38:46.003Z,97391
2017-12-08T00:41:12.691Z,97390
2017-12-08T00:43:40.066Z,97378
2017-12-08T00:46:07.058Z,97372
2017-12-08T00:48:33.726Z,97367
2017-12-08T00:51:00.370Z,97370
2017-12-08T00:53:27.579Z,97365
2017-12-08T00:55:54.226Z,97364
2017-12-08T00:58:20.879Z,97358
2017-12-08T01:00:47.553Z,97343
2017-12-08T01:03:14.949Z,97353
2017-12-08T01:05:41.612Z,97347
2017-12-08T01:08:08.254Z,97339
2017-12-08T01:10:34.901Z,97330
2017-12-08T01:13:01.913Z,97328
2017-12-08T01:15:29.240Z,97328
2017-12-08T01:17:55.898Z,97332
2017-12-08T01:20:23.290Z,97334
2017-12-08T01:22:50.034Z,97332
2017-12-08T01:25:16.962Z,97325
2017-12-08T01:27:44.448Z,97315
2017-12-08T01:30:11.102Z,97303
2017-12-08T01:32:37.885Z,97292
2017-12-08T01:35:04.559Z,97283
2017-12-08T01:37:31.344Z,97276
2017-12-08T01:39:58.006Z,97274
2017-12-08T01:42:24.664Z,97270
2017-12-08T01:44:52.098Z,97271
2017-12-08T01:47:18.751Z,97267
2017-12-08T01:49:45.424Z,97263
2017-12-08T01:52:12.858Z,97260
2017-12-08T01:54:39.550Z,97258
2017-12-08T01:57:06.246Z,97258
2017-12-08T01:59:32.930Z,97248
2017-12-08T02:01:59.578Z,97236
2017-12-08T02:04:26.265Z,97227
2017-12-08T02:06:53.896Z,97221
2017-12-08T02:09:20.566Z,97212
2017-12-08T02:11:48.195Z,97215
2017-12-08T02:14:14.867Z,97218
2017-12-08T02:16:41.527Z,97213
2017-12-08T02:19:08.211Z,97201
2017-12-08T02:21:34.963Z,97204
2017-12-08T02:24:01.823Z,97201
2017-12-08T02:26:28.535Z,97198
2017-12-08T02:28:56.013Z,97185
2017-12-08T02:31:22.703Z,97186
2017-12-08T02:33:49.641Z,97180
2017-12-08T02:36:17.729Z,97178
2017-12-08T02:38:44.413Z,97188
2017-12-08T02:41:11.105Z,97181
2017-12-08T02:43:37.770Z,97173
2017-12-08T02:46:04.436Z,97169
2017-12-08T02:48:31.880Z,97161
2017-12-08T02:50:59.348Z,97157
2017-12-08T02:53:26.792Z,97168
2017-12-08T02:55:53.453Z,97164
2017-12-08T02:58:20.882Z,97150
2017-12-08T03:00:47.693Z,97151
2017-12-08T03:03:14.354Z,97149
2017-12-08T03:05:41.046Z,97142
2017-12-08T03:08:08.486Z,97138
2017-12-08T03:10:35.168Z,97139
2017-12-08T03:13:01.867Z,97140
2017-12-08T03:15:29.344Z,97144
2017-12-08T03:17:56.752Z,97141
2017-12-08T03:20:23.409Z,97130
2017-12-08T03:22:50.107Z,97114
2017-12-08T03:25:17.510Z,97136
2017-12-08T03:27:44.942Z,97106
2017-12-08T03:30:11.717Z,97106
2017-12-08T03:32:38.422Z,97111
2017-12-08T03:35:05.167Z,97102
2017-12-08T03:37:31.838Z,97095
2017-12-08T03:39:58.495Z,97089
2017-12-08T03:42:25.234Z,97114
2017-12-08T03:44:51.884Z,97105
2017-12-08T03:47:18.570Z,97094
2017-12-08T03:49:46.046Z,97092
2017-12-08T03:52:12.712Z,97090
2017-12-08T03:54:39.407Z,97076
2017-12-08T03:57:06.834Z,97073
2017-12-08T03:59:33.516Z,97074
2017-12-08T04:02:00.937Z,97071
2017-12-08T04:04:27.569Z,97078
2017-12-08T04:06:54.288Z,97071
2017-12-08T04:09:20.978Z,97067
2017-12-08T04:11:47.628Z,97060
2017-12-08T04:14:14.302Z,97054
2017-12-08T04:16:40.957Z,97052
2017-12-08T04:19:07.606Z,97039
2017-12-08T04:21:34.296Z,97030
2017-12-08T04:24:00.972Z,97021
2017-12-08T04:26:28.375Z,97023
2017-12-08T04:28:55.074Z,97008
2017-12-08T04:31:23.429Z,97011
2017-12-08T04:33:50.082Z,96998
2017-12-08T04:36:17.566Z,97000
2017-12-08T04:38:44.246Z,97004
2017-12-08T04:41:10.926Z,97000
2017-12-08T04:43:39.161Z,96990
2017-12-08T04:46:05.895Z,96986
2017-12-08T04:48:32.559Z,96976
2017-12-08T04:50:59.266Z,96976
2017-12-08T04:53:25.971Z,96980
2017-12-08T04:55:53.430Z,96979
2017-12-08T04:58:20.873Z,96974
2017-12-08T05:00:47.553Z,96964
2017-12-08T05:03:14.958Z,96964
2017-12-08T05:05:41.653Z,96963
2017-12-08T05:08:09.050Z,96953
2017-12-08T05:10:35.728Z,96952
2017-12-08T05:13:02.433Z,96947
2017-12-08T05:15:29.147Z,96938
2017-12-08T05:17:56.560Z,96933
2017-12-08T05:20:23.259Z,96925
2017-12-08T05:22:49.985Z,96929
2017-12-08T05:25:17.394Z,96920
2017-12-08T05:27:44.052Z,96923
2017-12-08T05:30:10.692Z,96911
2017-12-08T05:32:37.357Z,96927
2017-12-08T05:35:04.013Z,96924
2017-12-08T05:37:31.429Z,96918
2017-12-08T05:39:58.101Z,96905
2017-12-08T05:42:24.757Z,96903
2017-12-08T05:44:52.197Z,96900
2017-12-08T05:47:18.937Z,96891
2017-12-08T05:49:45.587Z,96893
2017-12-08T05:52:12.240Z,96896
2017-12-08T05:54:38.959Z,96897
2017-12-08T05:57:05.613Z,96895
2017-12-08T05:59:32.265Z,96883
2017-12-08T06:01:59.009Z,96862
2017-12-08T06:04:25.673Z,96867
2017-12-08T06:06:53.110Z,96859
2017-12-08T06:09:19.817Z,96859
2017-12-08T06:11:46.470Z,96858
2017-12-08T06:14:14.016Z,96850
2017-12-08T06:16:40.678Z,96857
2017-12-08T06:19:07.356Z,96862
2017-12-08T06:21:34.774Z,96863
2017-12-08T06:24:01.398Z,96853
2017-12-08T06:26:28.071Z,96864
2017-12-08T06:28:54.721Z,96865
2017-12-08T06:31:21.388Z,96854
2017-12-08T06:33:48.771Z,96860
2017-12-08T06:36:15.413Z,96854
2017-12-08T06:38:42.160Z,96854
2017-12-08T06:41:08.841Z,96852
2017-12-08T06:43:35.552Z,96847
2017-12-08T06:46:02.199Z,96839
2017-12-08T06:48:28.889Z,96825
2017-12-08T06:50:55.536Z,96838
2017-12-08T06:53:22.261Z,96832
2017-12-08T06:55:48.912Z,96832
2017-12-08T06:58:15.587Z,96831
2017-12-08T07:00:42.227Z,96828
2017-12-08T07:03:08.901Z,96820
2017-12-08T07:05:35.563Z,96821
2017-12-08T07:08:03.745Z,96830
2017-12-08T07:10:30.504Z,96838
2017-12-08T07:12:57.235Z,96832
2017-12-08T07:15:24.476Z,96828
2017-12-08T07:17:51.186Z,96830
2017-12-08T07:20:17.885Z,96827
2017-12-08T07:22:44.598Z,96834
2017-12-08T07:25:11.332Z,96826
2017-12-08T07:27:37.980Z,96829
2017-12-08T07:30:04.706Z,96836
2017-12-08T07:32:31.404Z,96828
2017-12-08T07:34:58.111Z,96835
2017-12-08T07:37:24.828Z,96841
2017-12-08T07:39:51.522Z,96832
2017-12-08T07:42:18.257Z,96842
2017-12-08T07:44:44.901Z,96831
2017-12-08T07:47:11.570Z,96825
2017-12-08T07:49:38.292Z,96810
2017-12-08T07:52:05.007Z,96813
2017-12-08T07:54:31.687Z,96821
2017-12-08T07:56:58.349Z,96820
2017-12-08T07:59:25.723Z,96827
2017-12-08T08:01:53.117Z,96823
2017-12-08T08:04:19.826Z,96816
2017-12-08T08:06:46.514Z,96822
2017-12-08T08:09:13.155Z,96821
2017-12-08T08:11:39.844Z,96810
2017-12-08T08:14:08.098Z,96801
2017-12-08T08:16:34.844Z,96803
2017-12-08T08:19:01.561Z,96800
2017-12-08T08:21:28.241Z,96802
2017-12-08T08:23:55.232Z,96798
2017-12-08T08:26:21.933Z,96795
2017-12-08T08:28:48.683Z,96800
2017-12-08T08:31:15.373Z,96804
2017-12-08T08:33:42.058Z,96797
2017-12-08T08:36:08.766Z,96802
2017-12-08T08:38:35.538Z,96806
2017-12-08T08:41:02.323Z,96809
2017-12-08T08:43:30.603Z,96803
2017-12-08T08:45:58.078Z,96816
2017-12-08T08:48:24.796Z,96813
2017-12-08T08:50:52.983Z,96812
2017-12-08T08:53:20.506Z,96804
2017-12-08T08:55:47.201Z,96818
2017-12-08T08:58:13.913Z,96822
2017-12-08T09:00:40.650Z,96830
2017-12-08T09:03:07.319Z,96820
2017-12-08T09:05:34.768Z,96834
2017-12-08T09:08:02.235Z,96842
2017-12-08T09:10:29.685Z,96831
2017-12-08T09:12:56.425Z,96838
2017-12-08T09:15:23.147Z,96845
2017-12-08T09:17:50.153Z,96842
2017-12-08T09:20:16.827Z,96839
2017-12-08T09:22:43.494Z,96838
2017-12-08T09:25:10.231Z,96825
2017-12-08T09:27:36.923Z,96816
2017-12-08T09:30:04.659Z,96809
2017-12-08T09:32:31.414Z,96805
2017-12-08T09:34:58.844Z,96809
2017-12-08T09:37:25.513Z,96802
2017-12-08T09:39:52.228Z,96805
2017-12-08T09:42:18.905Z,96798
2017-12-08T09:44:46.321Z,96799
2017-12-08T09:47:13.062Z,96790
2017-12-08T09:49:39.767Z,96786
2017-12-08T09:52:07.198Z,96778
2017-12-08T09:54:33.934Z,96777
2017-12-08T09:57:00.611Z,96788
2017-12-08T09:59:28.094Z,96773
2017-12-08T10:01:54.806Z,96774
2017-12-08T10:04:22.269Z,96768
2017-12-08T10:06:49.727Z,96763
2017-12-08T10:09:16.467Z,96771
2017-12-08T10:11:43.175Z,96759
2017-12-08T10:14:09.857Z,96748
2017-12-08T10:16:37.304Z,96752
2017-12-08T10:19:04.004Z,96754
2017-12-08T10:21:30.753Z,96749
2017-12-08T10:23:57.527Z,96733
2017-12-08T10:26:25.114Z,96742
2017-12-08T10:28:52.530Z,96756
2017-12-08T10:31:19.271Z,96747
2017-12-08T10:33:45.975Z,96737
2017-12-08T10:36:14.048Z,96736
2017-12-08T10:38:40.734Z,96740
2017-12-08T10:41:07.394Z,96743
2017-12-08T10:43:34.270Z,96730
2017-12-08T10:46:01.695Z,96737
2017-12-08T10:48:28.794Z,96734
2017-12-08T10:50:56.579Z,96732
2017-12-08T10:53:23.311Z,96737
2017-12-08T10:55:50.763Z,96736
2017-12-08T10:58:18.213Z,96727
2017-12-08T11:00:45.834Z,96735
2017-12-08T11:03:13.454Z,96717
2017-12-08T11:05:41.830Z,96720
2017-12-08T11:08:09.290Z,96723
2017-12-08T11:10:36.722Z,96708
2017-12-08T11:13:03.452Z,96718
2017-12-08T11:15:30.303Z,96702
2017-12-08T11:17:57.932Z,96704
2017-12-08T11:20:24.633Z,96702
2017-12-08T11:22:51.298Z,96705
2017-12-08T11:25:18.808Z,96691
2017-12-08T11:27:45.496Z,96679
2017-12-08T11:30:13.014Z,96678
2017-12-08T11:32:39.765Z,96682
2017-12-08T11:35:06.486Z,96689
2017-12-08T11:37:34.086Z,96687
2017-12-08T11:40:00.793Z,96679
2017-12-08T11:42:27.481Z,96678
2017-12-08T11:44:54.206Z,96673
2017-12-08T11:47:20.881Z,96673
2017-12-08T11:49:47.666Z,96661
2017-12-08T11:52:14.391Z,96656
2017-12-08T11:54:41.795Z,96656
2017-12-08T11:57:08.461Z,96659
2017-12-08T11:59:35.190Z,96653
2017-12-08T12:02:01.865Z,96656
2017-12-08T12:04:28.570Z,96648
2017-12-08T12:06:55.359Z,96650
2017-12-08T12:09:22.794Z,96640
2017-12-08T12:11:49.449Z,96640
2017-12-08T12:14:16.138Z,96642
2017-12-08T12:16:42.796Z,96650
2017-12-08T12:19:09.458Z,96657
2017-12-08T12:21:36.127Z,96650
2017-12-08T12:24:02.814Z,96654
2017-12-08T12:26:29.461Z,96650
2017-12-08T12:28:56.168Z,96650
2017-12-08T12:31:22.833Z,96652
2017-12-08T12:33:49.659Z,96646
2017-12-08T12:36:17.937Z,96639
2017-12-08T12:38:44.599Z,96641
2017-12-08T12:41:11.313Z,96640
2017-12-08T12:43:38.758Z,96634
2017-12-08T12:46:06.179Z,96628
2017-12-08T12:48:32.905Z,96631
2017-12-08T12:50:59.657Z,96630
2017-12-08T12:53:26.342Z,96619
2017-12-08T12:55:53.009Z,96623
2017-12-08T12:58:20.527Z,96617
2017-12-08T13:00:47.930Z,96615
2017-12-08T13:03:15.325Z,96617
2017-12-08T13:05:41.999Z,96613
2017-12-08T13:08:08.651Z,96612
2017-12-08T13:10:35.322Z,96610
2017-12-08T13:13:01.981Z,96607
2017-12-08T13:15:28.627Z,96606
2017-12-08T13:17:55.281Z,96604
2017-12-08T13:20:21.975Z,96597
2017-12-08T13:22:48.608Z,96597
2017-12-08T13:25:15.977Z,96597
2017-12-08T13:27:42.657Z,96600
2017-12-08T13:30:09.312Z,96591
2017-12-08T13:32:35.978Z,96596
2017-12-08T13:35:02.646Z,96591
2017-12-08T13:37:29.283Z,96590
2017-12-08T13:39:55.947Z,96591
2017-12-08T13:42:22.742Z,96583
2017-12-08T13:44:49.501Z,96578
2017-12-08T13:47:16.146Z,96584
2017-12-08T13:49:42.811Z,96587
2017-12-08T13:52:09.493Z,96588
2017-12-08T13:54:54.523Z,96589
2017-12-08T13:57:21.206Z,96589
2017-12-08T13:59:47.875Z,96585
2017-12-08T14:02:14.603Z,96581
2017-12-08T14:04:41.308Z,96576
2017-12-08T14:07:09.641Z,96585
2017-12-08T14:09:36.354Z,96584
2017-12-08T14:12:03.046Z,96584
2017-12-08T14:14:30.482Z,96589
2017-12-08T14:16:57.203Z,96589
2017-12-08T14:19:23.901Z,96591
2017-12-08T14:21:50.618Z,96592
2017-12-08T14:24:17.278Z,96592
2017-12-08T14:26:43.938Z,96590
2017-12-08T14:29:10.581Z,96594
2017-12-08T14:31:37.274Z,96590
2017-12-08T14:34:04.008Z,96598
2017-12-08T14:36:30.767Z,96596
2017-12-08T14:38:57.481Z,96596
2017-12-08T14:41:24.178Z,96594
2017-12-08T14:43:50.851Z,96601
2017-12-08T14:46:17.548Z,96606
2017-12-08T14:48:44.263Z,96616
2017-12-08T14:51:10.940Z,96620
2017-12-08T14:53:37.668Z,96618
2017-12-08T14:56:04.366Z,96616
2017-12-08T14:58:31.045Z,96617
2017-12-08T15:00:57.801Z,96619
2017-12-08T15:03:24.457Z,96614
2017-12-08T15:05:51.154Z,96616
2017-12-08T15:08:17.929Z,96625
2017-12-08T15:10:44.672Z,96630
2017-12-08T15:13:11.385Z,96628
2017-12-08T15:15:38.879Z,96628
2017-12-08T15:18:05.554Z,96625
2017-12-08T15:20:32.239Z,96629
2017-12-08T15:22:59.650Z,96635
2017-12-08T15:25:26.412Z,96632
2017-12-08T15:27:53.070Z,96639
2017-12-08T15:30:19.726Z,96636
2017-12-08T15:32:46.398Z,96642
2017-12-08T15:35:13.092Z,96642
2017-12-08T15:37:39.856Z,96644
2017-12-08T15:40:07.349Z,96639
2017-12-08T15:42:34.076Z,96641
2017-12-08T15:45:00.786Z,96641
2017-12-08T15:47:27.614Z,96641
2017-12-08T15:49:54.365Z,96636
2017-12-08T15:52:21.150Z,96639
2017-12-08T15:54:48.641Z,96632
2017-12-08T15:57:15.371Z,96629
2017-12-08T15:59:42.028Z,96629
2017-12-08T16:02:08.810Z,96618
2017-12-08T16:04:35.517Z,96624
2017-12-08T16:07:02.189Z,96620
2017-12-08T16:09:28.854Z,96614
2017-12-08T16:11:56.545Z,96622
2017-12-08T16:14:23.211Z,96616
2017-12-08T16:16:49.982Z,96623
2017-12-08T16:19:16.692Z,96621
2017-12-08T16:21:43.367Z,96622
2017-12-08T16:24:10.046Z,96621
2017-12-08T16:26:37.482Z,96613
2017-12-08T16:29:04.234Z,96613
2017-12-08T16:31:30.915Z,96612
2017-12-08T16:33:57.634Z,96614
2017-12-08T16:36:25.090Z,96622
2017-12-08T16:38:52.650Z,96621
2017-12-08T16:41:19.412Z,96620
2017-12-08T16:43:46.894Z,96622
2017-12-08T16:46:13.882Z,96627
2017-12-08T16:48:40.559Z,96629
2017-12-08T16:51:08.140Z,96632
2017-12-08T16:53:34.799Z,96643
2017-12-08T16:56:01.486Z,96643
2017-12-08T16:58:28.221Z,96639
2017-12-08T17:00:54.908Z,96643
2017-12-08T17:03:22.522Z,96633
2017-12-08T17:05:49.239Z,96637
2017-12-08T17:08:16.062Z,96641
2017-12-08T17:10:43.441Z,96641
2017-12-08T17:13:10.582Z,96650
2017-12-08T17:15:37.281Z,96651
2017-12-08T17:18:04.107Z,96656
2017-12-08T17:20:30.753Z,96667
2017-12-08T17:22:57.438Z,96678
2017-12-08T17:25:24.931Z,96685
2017-12-08T17:27:51.700Z,96684
2017-12-08T17:30:18.432Z,96686
2017-12-08T17:32:45.208Z,96693
2017-12-08T17:35:11.927Z,96686
2017-12-08T17:37:38.636Z,96688
2017-12-08T17:40:05.523Z,96679
2017-12-08T17:42:32.206Z,96690
2017-12-08T17:44:58.918Z,96692
2017-12-08T17:47:25.562Z,96679
2017-12-08T17:49:52.207Z,96687
2017-12-08T17:52:18.997Z,96700
2017-12-08T17:54:45.821Z,96694
2017-12-08T17:57:12.770Z,96698
2017-12-08T17:59:39.423Z,96696
2017-12-08T18:02:06.897Z,96700
2017-12-08T18:04:33.572Z,96700
2017-12-08T18:07:00.284Z,96693
2017-12-08T18:09:26.941Z,96693
2017-12-08T18:11:53.706Z,96694
2017-12-08T18:14:20.557Z,96695
2017-12-08T18:16:47.319Z,96692
2017-12-08T18:19:14.058Z,96689
2017-12-08T18:21:40.819Z,96687
2017-12-08T18:24:07.508Z,96688
2017-12-08T18:26:34.178Z,96683
2017-12-08T18:29:00.891Z,96686
2017-12-08T18:31:27.591Z,96674
2017-12-08T18:33:54.266Z,96666
2017-12-08T18:36:21.726Z,96671
2017-12-08T18:38:48.386Z,96684
2017-12-08T18:41:15.107Z,96678
2017-12-08T18:43:43.230Z,96685
2017-12-08T18:46:09.971Z,96682
2017-12-08T18:48:36.659Z,96682
2017-12-08T18:51:03.503Z,96680
2017-12-08T18:53:30.935Z,96684
2017-12-08T18:55:57.642Z,96679
2017-12-08T18:58:25.225Z,96677
2017-12-08T19:00:51.952Z,96669
2017-12-08T19:03:18.654Z,96657
2017-12-08T19:05:46.167Z,96649
2017-12-08T19:08:12.872Z,96643
2017-12-08T19:10:40.363Z,96617
2017-12-08T19:13:07.155Z,96604
2017-12-08T19:15:34.606Z,96637
2017-12-08T19:18:01.375Z,96652
2017-12-08T19:20:28.065Z,96646
2017-12-08T19:22:54.743Z,96645
2017-12-08T19:25:21.483Z,96640
2017-12-08T19:27:48.209Z,96646
2017-12-08T19:30:15.999Z,96644
2017-12-08T19:32:42.733Z,96645
2017-12-08T19:35:10.953Z,96638
2017-12-08T19:37:38.438Z,96644
2017-12-08T19:40:05.155Z,96643
2017-12-08T19:42:32.610Z,96645
2017-12-08T19:44:59.290Z,96651
2017-12-08T19:47:26.054Z,96662
2017-12-08T19:49:52.730Z,96665
2017-12-08T19:52:19.359Z,96656
2017-12-08T19:54:46.127Z,96662
2017-12-08T19:57:12.819Z,96663
2017-12-08T19:59:39.510Z,96662
2017-12-08T20:02:06.223Z,96675
2017-12-08T20:04:32.894Z,96665
2017-12-08T20:06:59.573Z,96676
2017-12-08T20:09:26.269Z,96683
2017-12-08T20:11:52.966Z,96668
2017-12-08T20:14:20.505Z,96672
2017-12-08T20:16:47.918Z,96675
2017-12-08T20:19:14.624Z,96662
2017-12-08T20:21:41.339Z,96670
2017-12-08T20:24:08.100Z,96669
2017-12-08T20:26:35.586Z,96674
2017-12-08T20:29:02.264Z,96671
2017-12-08T20:31:28.920Z,96664
2017-12-08T20:33:56.246Z,96662
2017-12-08T20:36:22.931Z,96662
2017-12-08T20:38:50.311Z,96670
2017-12-08T20:41:17.720Z,96655
2017-12-08T20:43:44.457Z,96647
2017-12-08T20:46:11.138Z,96653
2017-12-08T20:48:37.815Z,96673
2017-12-08T20:51:04.495Z,96669
2017-12-08T20:53:31.135Z,96677
2017-12-08T20:55:57.798Z,96683
2017-12-08T20:58:24.491Z,96689
2017-12-08T21:00:51.725Z,96687
2017-12-08T21:03:19.145Z,96698
2017-12-08T21:05:45.818Z,96705
2017-12-08T21:08:13.223Z,96709
2017-12-08T21:10:39.927Z,96717
2017-12-08T21:13:07.341Z,96723
2017-12-08T21:15:34.001Z,96720
2017-12-08T21:18:00.698Z,96717
2017-12-08T21:20:27.367Z,96710
2017-12-08T21:22:54.013Z,96714
2017-12-08T21:25:20.735Z,96709
2017-12-08T21:27:47.463Z,96713
2017-12-08T21:30:14.139Z,96718
2017-12-08T21:32:40.837Z,96713
2017-12-08T21:35:08.238Z,96724
2017-12-08T21:37:34.881Z,96727
2017-12-08T21:40:01.561Z,96735
2017-12-08T21:42:28.253Z,96736
2017-12-08T21:44:54.923Z,96739
2017-12-08T21:47:21.591Z,96717
2017-12-08T21:49:48.272Z,96706
2017-12-08T21:52:14.925Z,96707
2017-12-08T21:54:41.669Z,96714
2017-12-08T21:57:08.334Z,96718
2017-12-08T21:59:35.011Z,96719
2017-12-08T22:02:02.486Z,96709
2017-12-08T22:04:30.856Z,96717
2017-12-08T22:06:58.321Z,96741
2017-12-08T22:09:25.894Z,96745
2017-12-08T22:11:53.805Z,96741
2017-12-08T22:14:20.557Z,96725
2017-12-08T22:16:47.269Z,96720
2017-12-08T22:19:14.027Z,96703
2017-12-08T22:21:40.675Z,96689
2017-12-08T22:24:07.351Z,96672
2017-12-08T22:26:34.071Z,96671
2017-12-08T22:29:00.724Z,96675
2017-12-08T22:31:27.422Z,96683
2017-12-08T22:33:54.135Z,96685
2017-12-08T22:36:20.818Z,96686
2017-12-08T22:38:47.467Z,96689
2017-12-08T22:41:14.193Z,96696
2017-12-08T22:43:40.858Z,96690
2017-12-08T22:46:07.553Z,96692
2017-12-08T22:48:35.014Z,96678
2017-12-08T22:51:01.687Z,96683
2017-12-08T22:53:28.353Z,96692
2017-12-08T22:55:55.041Z,96673
2017-12-08T22:58:21.726Z,96671
2017-12-08T23:00:48.501Z,96669
2017-12-08T23:03:15.214Z,96665
2017-12-08T23:05:41.886Z,96658
2017-12-08T23:08:08.555Z,96652
2017-12-08T23:10:35.267Z,96651
2017-12-08T23:13:01.896Z,96652
2017-12-08T23:15:28.574Z,96636
2017-12-08T23:17:55.242Z,96638
2017-12-08T23:20:22.656Z,96640
2017-12-08T23:22:49.319Z,96637
2017-12-08T23:25:16.898Z,96635
2017-12-08T23:27:44.273Z,96618
2017-12-08T23:30:11.713Z,96616
2017-12-08T23:32:38.370Z,96630
2017-12-08T23:35:05.746Z,96621
2017-12-08T23:37:32.419Z,96620
2017-12-08T23:39:59.234Z,96629
2017-12-08T23:42:25.870Z,96628
2017-12-08T23:44:54.199Z,96633
2017-12-08T23:47:20.900Z,96640
2017-12-08T23:49:47.582Z,96645
2017-12-08T23:52:14.253Z,96661
2017-12-08T23:54:40.903Z,96673
2017-12-08T23:57:07.561Z,96679
2017-12-08T23:59:34.960Z,96690
